Portada
METAR-TAF:

METAR-TAF

Aeroports :

Àqaba, Jordània

latitud: 29-38N, longitud: 035-01E, altitud: 53 m

Observació

L'informe es va fer fa 31 minuts, a les 15:00 UTC
Vent 14 kt del Nord
Temperatura 31°C
Humitat 16%
Pressió 1013 hPa
Visibilitat 10 km o més
sense núvols per sota de 1500 mi sense presència de cumulonimbus.

METAR: OJAQ 251500Z 01014KT CAVOK 31/02 Q1013 NOSIG

Hora: 18:31 (15:31 UTC)

Pronòstic

L'informe es va fer fa 4 hores i 26 minuts, a les 11:05 UTC
Pronòstic vàlid del 25 a les 12 UTC al 26 a les 18 UTC
Vent 14 kt del Nord
Visibilitat 10 km o més
sense núvols per sota de 1500 mi sense presència de cumulonimbus.
Temporalment
l' 25 a les 18 UTC al 25 a les 24 UTC
Visibilitat: 7000 m

TAF: OJAQ 251105Z 2512/2618 36014KT CAVOK TEMPO 2518/2524 35010 7000

Observacions i pronòstics meteorològics de més de 4000 aeroports (METAR i TAF).

Les estacions disponibles són els punts grocs i vermells al mapa.

Posi el ratolí al punt desitjat per veure el nom de l'estació.

Feu clic per veure les observacions i els pronòstics meteorològics.

Per canviar el mapa: feu clic els botons verds amb una creu de color negre per apropar; al botó verd amb un guió per allunyar la imatge; o en les fletxes verdes per a mapes adjacents.


METAR-TAF: